Time;durP1;ratioP1;P1;durP2;ratioP2;P2;SDS_P1;SDS_P2;PMS_P1;PMS_P2;Temp;Humidity;BMP_temperature;BMP_pressure;BME280_temperature;BME280_humidity;BME280_pressure;Samples;Min_cycle;Max_cycle;Signal;HPM_P1;HPM_P2
2022/11/22 12:12:54;;;;;;;15.70;11.90;;;;;;;7.37;72.64;100071.66;105466;1312;22143;-62
2022/11/22 12:15:48;;;;;;;14.80;9.60;;;;;;;7.70;70.58;100075.00;105394;1312;23818;-62
2022/11/22 12:18:38;;;;;;;12.70;9.50;;;;;;;7.95;69.85;100078.70;105574;1310;21986;-63
2022/11/22 12:21:25;;;;;;;13.70;9.30;;;;;;;8.16;68.98;100076.81;105072;1307;837125;-61
2022/11/22 12:24:02;;;;;;;12.30;9.40;;;;;;;8.36;68.58;100084.01;105996;1307;21956;-62
2022/11/22 12:26:29;;;;;;;13.50;10.10;;;;;;;8.62;67.63;100088.02;105930;1308;21951;-64
2022/11/22 12:28:55;;;;;;;13.40;9.50;;;;;;;8.68;67.18;100087.27;106017;1308;21972;-63
2022/11/22 12:31:24;;;;;;;12.30;9.40;;;;;;;8.85;66.87;100084.13;106003;1309;21959;-63
2022/11/22 12:33:53;;;;;;;12.30;9.00;;;;;;;8.89;66.72;100083.21;106001;1308;21956;-62
2022/11/22 12:36:27;;;;;;;11.10;8.60;;;;;;;8.79;66.40;100090.66;106091;1308;24284;-62
2022/11/22 12:38:55;;;;;;;11.00;8.40;;;;;;;8.90;65.97;100083.38;105764;1307;23710;-62
2022/11/22 12:41:22;;;;;;;11.80;9.20;;;;;;;9.10;66.24;100086.67;105782;1307;21944;-64
2022/11/22 12:43:53;;;;;;;12.10;9.30;;;;;;;9.23;66.11;100083.20;106048;1305;21963;-63
2022/11/22 12:46:20;;;;;;;12.70;9.10;;;;;;;9.25;65.75;100088.79;106138;1307;21977;-63
2022/11/22 12:48:58;;;;;;;13.10;9.70;;;;;;;9.26;65.01;100093.52;106399;1307;21963;-63
2022/11/22 12:52:07;;;;;;;14.20;9.30;;;;;;;9.14;64.63;100096.95;105791;1308;22954;-63
2022/11/22 12:54:51;;;;;;;14.00;9.90;;;;;;;9.09;64.56;100098.94;105790;1307;21966;-61
2022/11/22 12:57:20;;;;;;;20.90;13.50;;;;;;;9.11;64.60;100104.34;105764;1307;21970;-65
2022/11/22 12:59:52;;;;;;;15.60;11.20;;;;;;;9.15;64.79;100103.08;105635;1299;21964;-60
2022/11/22 13:02:57;;;;;;;14.50;10.50;;;;;;;9.13;64.44;100103.80;106061;1310;21958;-66
2022/11/22 13:05:25;;;;;;;15.10;10.80;;;;;;;9.12;64.29;100101.90;105880;1307;21972;-64
2022/11/22 13:08:31;;;;;;;12.40;9.90;;;;;;;9.09;64.16;100100.34;105923;1307;22016;-61
2022/11/22 13:11:05;;;;;;;13.90;10.70;;;;;;;9.03;63.77;100103.55;105842;1307;21959;-60
2022/11/22 13:13:33;;;;;;;14.50;10.50;;;;;;;9.03;63.75;100110.02;105879;1307;21957;-64
2022/11/22 13:16:01;;;;;;;14.50;11.20;;;;;;;8.99;63.66;100112.35;105909;1307;22410;-65
2022/11/22 13:18:30;;;;;;;14.10;11.10;;;;;;;8.97;63.77;100117.78;105872;1308;21963;-60
2022/11/22 13:21:06;;;;;;;12.90;10.10;;;;;;;8.95;63.49;100123.41;106126;1308;21964;-61
2022/11/22 13:24:17;;;;;;;12.10;9.70;;;;;;;8.99;62.72;100121.98;105931;1304;21999;-67
2022/11/22 13:27:06;;;;;;;12.60;9.20;;;;;;;8.87;63.20;100119.27;105808;1307;21958;-61
2022/11/22 13:29:34;;;;;;;13.20;9.10;;;;;;;8.73;63.17;100116.42;106026;1307;21963;-65
2022/11/22 13:32:12;;;;;;;12.70;9.80;;;;;;;8.71;63.64;100111.21;106089;1307;21951;-64
2022/11/22 13:34:41;;;;;;;12.30;8.70;;;;;;;8.72;63.52;100112.77;105988;1307;21998;-61
2022/11/22 13:37:12;;;;;;;13.10;9.50;;;;;;;8.70;63.49;100111.20;105773;1307;21956;-61
2022/11/22 13:39:42;;;;;;;13.70;9.80;;;;;;;8.71;63.43;100113.13;105702;1308;24353;-62
2022/11/22 13:42:30;;;;;;;13.30;10.40;;;;;;;8.66;63.18;100112.13;105981;1307;21967;-63
2022/11/22 13:44:57;;;;;;;14.70;10.10;;;;;;;8.58;62.96;100113.06;106123;1307;21961;-63
2022/11/22 13:47:36;;;;;;;16.70;11.80;;;;;;;8.48;62.88;100119.42;105967;1307;21962;-63
2022/11/22 13:50:29;;;;;;;13.00;11.00;;;;;;;8.36;62.88;100126.67;105922;1305;21963;-62
2022/11/22 13:52:55;;;;;;;14.00;10.60;;;;;;;8.38;62.39;100129.09;105208;1293;1002286;-62
2022/11/22 13:55:27;;;;;;;14.00;10.50;;;;;;;8.36;61.94;100129.80;105624;1307;23591;-62
2022/11/22 13:57:53;;;;;;;14.00;10.50;;;;;;;8.28;61.92;100136.51;105762;1307;21951;-63
2022/11/22 14:00:20;;;;;;;13.10;9.60;;;;;;;8.27;62.24;100140.73;105737;1307;21964;-63
2022/11/22 14:02:47;;;;;;;13.90;10.60;;;;;;;8.27;62.23;100146.48;106076;1307;21956;-64
2022/11/22 14:05:24;;;;;;;16.10;11.10;;;;;;;8.22;62.12;100149.66;107965;1307;21958;-62
2022/11/22 14:07:53;;;;;;;15.20;11.50;;;;;;;8.17;62.11;100147.77;105929;1307;21963;-62
2022/11/22 14:10:33;;;;;;;16.50;10.80;;;;;;;8.17;61.79;100145.33;105965;1307;23681;-61
2022/11/22 14:13:19;;;;;;;16.10;11.90;;;;;;;8.11;61.63;100142.91;105705;1308;21956;-60
2022/11/22 14:15:52;;;;;;;12.80;9.80;;;;;;;7.87;62.11;100142.52;105980;1307;22880;-60
2022/11/22 14:18:33;;;;;;;17.10;11.70;;;;;;;7.78;62.61;100142.91;106057;1307;21954;-60
2022/11/22 14:21:24;;;;;;;16.30;10.50;;;;;;;7.78;62.82;100140.46;106000;1306;21957;-62
2022/11/22 14:24:21;;;;;;;16.90;11.30;;;;;;;7.78;62.92;100134.17;105783;1307;21973;-61
2022/11/22 14:27:28;;;;;;;14.70;11.40;;;;;;;7.77;62.90;100134.00;106010;1307;21955;-62
2022/11/22 14:30:00;;;;;;;16.70;13.00;;;;;;;7.69;62.82;100132.81;105718;1307;21968;-60
2022/11/22 14:32:26;;;;;;;21.80;15.20;;;;;;;7.69;62.66;100132.30;105766;1307;21971;-63
2022/11/22 14:35:23;;;;;;;18.10;12.30;;;;;;;7.67;62.56;100134.92;105756;1306;23657;-62
2022/11/22 14:38:31;;;;;;;15.70;11.40;;;;;;;7.65;62.37;100133.89;106252;1304;21957;-62
2022/11/22 14:41:26;;;;;;;17.30;11.30;;;;;;;7.62;62.46;100138.27;105805;1307;21975;-62
2022/11/22 14:44:02;;;;;;;16.00;11.20;;;;;;;7.54;62.58;100146.48;105953;1307;21960;-62
2022/11/22 14:46:56;;;;;;;15.80;11.20;;;;;;;7.47;62.45;100148.45;105966;1302;21955;-62
2022/11/22 14:49:37;;;;;;;12.90;9.20;;;;;;;7.37;62.27;100150.57;106033;1307;21955;-60
2022/11/22 14:52:03;;;;;;;15.30;9.70;;;;;;;7.30;62.14;100151.64;105931;1301;21954;-61
2022/11/22 14:54:46;;;;;;;12.90;9.60;;;;;;;7.22;62.16;100151.30;105249;1307;1002802;-61
2022/11/22 14:57:15;;;;;;;12.80;9.00;;;;;;;7.14;62.12;100150.27;106039;1307;21947;-61
2022/11/22 15:00:06;;;;;;;16.10;10.30;;;;;;;7.07;61.99;100149.23;106024;1307;23148;-62
2022/11/22 15:03:05;;;;;;;12.80;9.70;;;;;;;7.02;62.01;100151.00;105824;1306;23793;-62
2022/11/22 15:05:54;;;;;;;16.70;11.00;;;;;;;6.94;62.00;100148.91;105934;1306;21995;-64
2022/11/22 15:08:42;;;;;;;18.00;12.10;;;;;;;6.86;61.89;100155.02;105718;1305;21966;-64
2022/11/22 15:11:21;;;;;;;14.70;10.50;;;;;;;6.77;61.89;100155.20;105770;1306;21969;-62
2022/11/22 15:14:08;;;;;;;16.60;10.90;;;;;;;6.66;61.68;100153.61;105012;1305;1002513;-61
2022/11/22 15:16:37;;;;;;;21.00;12.80;;;;;;;6.48;61.69;100165.65;105837;1306;23078;-60
2022/11/22 15:19:03;;;;;;;20.60;14.30;;;;;;;6.30;61.58;100172.23;105814;1307;21956;-60
2022/11/22 15:21:30;;;;;;;35.70;23.40;;;;;;;6.15;61.58;100176.23;105811;1306;21948;-64
2022/11/22 15:23:56;;;;;;;36.10;25.30;;;;;;;6.04;61.72;100178.10;105774;1306;21966;-64
2022/11/22 15:26:25;;;;;;;33.30;21.00;;;;;;;5.99;61.81;100181.91;105878;1306;21958;-61
2022/11/22 15:28:52;;;;;;;35.20;18.50;;;;;;;5.96;61.89;100189.20;106044;1306;21967;-63
2022/11/22 15:31:27;;;;;;;19.00;11.70;;;;;;;5.90;61.63;100194.58;105949;1307;21965;-63
2022/11/22 15:33:54;;;;;;;19.70;12.00;;;;;;;5.82;61.80;100197.30;106000;1307;21945;-63
2022/11/22 15:36:23;;;;;;;18.00;11.80;;;;;;;5.67;61.73;100199.34;105955;1307;21968;-60
2022/11/22 15:38:48;;;;;;;18.20;12.60;;;;;;;5.58;61.76;100209.39;105976;1307;21978;-60
2022/11/22 15:41:17;;;;;;;26.20;14.60;;;;;;;5.54;61.74;100214.94;105915;1304;22005;-63
2022/11/22 15:43:42;;;;;;;91.00;68.30;;;;;;;5.50;61.76;100215.63;106034;1305;21965;-62
2022/11/22 15:46:08;;;;;;;30.90;21.00;;;;;;;5.57;62.33;100213.21;105952;1307;21966;-61
2022/11/22 15:48:44;;;;;;;20.10;14.10;;;;;;;5.65;62.46;100209.08;106021;1307;21950;-60
2022/11/22 15:51:12;;;;;;;16.80;11.80;;;;;;;5.67;62.30;100212.92;105912;1307;21965;-60
2022/11/22 15:53:41;;;;;;;23.20;13.00;;;;;;;5.66;62.16;100217.97;106052;1307;21951;-60
2022/11/22 15:56:23;;;;;;;24.60;15.00;;;;;;;5.62;62.18;100227.17;105721;1307;21960;-60
2022/11/22 15:58:49;;;;;;;21.30;13.60;;;;;;;5.63;62.00;100227.35;105204;1307;1003428;-60
2022/11/22 16:01:16;;;;;;;17.00;11.00;;;;;;;5.60;61.86;100223.33;105634;1307;21963;-62
2022/11/22 16:03:42;;;;;;;17.80;11.40;;;;;;;5.53;61.97;100224.34;105909;1307;21960;-62
2022/11/22 16:06:16;;;;;;;18.50;12.50;;;;;;;5.46;61.73;100226.20;105913;1293;21962;-60
2022/11/22 16:08:49;;;;;;;16.60;11.50;;;;;;;5.40;61.80;100230.86;106017;1304;21996;-60
2022/11/22 16:11:20;;;;;;;21.30;14.20;;;;;;;5.38;61.67;100237.48;106162;1300;21956;-62
2022/11/22 16:13:45;;;;;;;18.40;10.90;;;;;;;5.35;61.99;100242.31;105948;1304;21967;-62
2022/11/22 16:16:11;;;;;;;24.50;14.40;;;;;;;5.29;61.82;100239.49;105911;1304;21967;-63
2022/11/22 16:19:32;;;;;;;24.90;17.00;;;;;;;5.18;61.55;100246.72;105910;1305;23726;-60
2022/11/22 16:22:01;;;;;;;21.10;12.60;;;;;;;5.05;61.34;100249.23;105296;1310;21977;-60
2022/11/22 16:24:28;;;;;;;17.10;10.40;;;;;;;4.92;61.34;100253.11;105912;1304;21960;-60
2022/11/22 16:27:01;;;;;;;21.30;14.10;;;;;;;4.81;61.56;100252.84;105332;1304;1003180;-63
2022/11/22 16:29:30;;;;;;;16.70;11.80;;;;;;;4.74;61.82;100247.21;106096;1303;22077;-63
2022/11/22 16:32:10;;;;;;;16.20;11.10;;;;;;;4.70;61.70;100248.74;105887;1307;22528;-60
2022/11/22 16:34:37;;;;;;;15.30;10.80;;;;;;;4.68;62.18;100250.64;106109;1304;22070;-62
2022/11/22 16:37:29;;;;;;;25.40;16.40;;;;;;;4.67;62.16;100253.92;106121;1304;21966;-61
2022/11/22 16:39:57;;;;;;;19.00;13.40;;;;;;;4.65;61.96;100258.77;106122;1292;23061;-60
2022/11/22 16:42:24;;;;;;;19.70;13.30;;;;;;;4.66;61.56;100259.46;106116;1302;21981;-62
2022/11/22 16:44:49;;;;;;;22.60;15.30;;;;;;;4.65;61.71;100260.85;106148;1304;21996;-62
2022/11/22 16:47:17;;;;;;;22.40;15.50;;;;;;;4.65;61.97;100261.20;106170;1304;22009;-64
2022/11/22 16:49:47;;;;;;;21.50;13.90;;;;;;;4.66;61.85;100262.08;106148;1304;21938;-61
2022/11/22 16:52:14;;;;;;;16.30;12.00;;;;;;;4.62;61.56;100264.50;106140;1304;21944;-61
2022/11/22 16:54:41;;;;;;;18.20;11.70;;;;;;;4.55;61.28;100263.38;106104;1304;22000;-60
2022/11/22 16:57:14;;;;;;;17.70;11.40;;;;;;;4.49;61.43;100270.60;106095;1304;21954;-61
2022/11/22 16:59:40;;;;;;;16.40;11.00;;;;;;;4.44;61.55;100275.42;106081;1304;21947;-60
2022/11/22 17:02:15;;;;;;;20.80;14.00;;;;;;;4.40;61.44;100280.08;106098;1304;21953;-60
2022/11/22 20:04:02;;;;;;;67.10;34.10;;;;;;;-0.59;79.48;100325.34;105172;1313;555837;-65
2022/11/22 20:06:28;;;;;;;90.00;42.60;;;;;;;1.28;71.85;100307.98;105366;1315;21979;-65
2022/11/22 20:09:21;;;;;;;100.70;47.40;;;;;;;1.78;68.75;100304.30;105266;1312;21983;-65
2022/11/22 20:11:47;;;;;;;98.90;49.60;;;;;;;2.00;67.49;100308.40;105332;1314;21974;-65
2022/11/22 20:14:13;;;;;;;109.30;53.20;;;;;;;2.13;66.68;100305.05;105317;1315;21992;-65
2022/11/22 20:16:40;;;;;;;90.10;48.00;;;;;;;2.12;66.70;100304.17;105233;1305;308818;-65
2022/11/22 20:19:08;;;;;;;82.00;44.40;;;;;;;2.20;66.36;100300.88;105709;1312;21993;-65
2022/11/22 20:21:36;;;;;;;72.00;40.40;;;;;;;2.30;65.87;100296.91;105690;1309;21978;-64
2022/11/22 20:24:03;;;;;;;77.50;41.30;;;;;;;2.39;65.66;100291.73;105637;1311;21969;-65
2022/11/22 20:26:30;;;;;;;69.00;37.90;;;;;;;2.52;65.48;100289.89;105643;1299;21963;-65
2022/11/22 20:28:56;;;;;;;64.10;36.10;;;;;;;2.66;65.07;100284.27;105607;1307;22014;-66
2022/11/22 20:31:22;;;;;;;71.10;36.80;;;;;;;2.75;64.89;100279.40;105683;1307;21978;-66
2022/11/22 20:33:49;;;;;;;72.10;35.80;;;;;;;2.80;64.71;100278.45;105699;1312;21980;-65
2022/11/22 20:36:25;;;;;;;73.90;39.00;;;;;;;2.84;64.44;100279.73;105707;1309;23082;-64
2022/11/22 20:38:51;;;;;;;84.60;43.10;;;;;;;2.85;64.04;100283.91;105642;1309;22095;-64
2022/11/22 20:41:20;;;;;;;86.80;43.40;;;;;;;2.80;63.72;100283.84;105620;1307;21966;-64
2022/11/22 20:43:45;;;;;;;81.60;40.30;;;;;;;2.72;63.28;100283.33;105683;1307;23622;-64
2022/11/22 20:46:13;;;;;;;73.10;37.90;;;;;;;2.60;63.18;100283.98;105662;1308;21979;-65
2022/11/22 20:48:40;;;;;;;90.70;44.80;;;;;;;2.56;63.51;100286.49;105797;1307;21974;-64
2022/11/22 20:51:07;;;;;;;89.50;45.20;;;;;;;2.50;63.61;100293.85;105697;1309;21973;-64
2022/11/22 20:53:34;;;;;;;78.90;42.10;;;;;;;2.49;63.59;100297.63;105678;1310;22115;-64
2022/11/22 20:56:00;;;;;;;83.50;41.20;;;;;;;2.50;63.57;100303.89;105638;1309;21973;-65
2022/11/22 20:58:27;;;;;;;59.90;31.00;;;;;;;2.55;63.52;100307.96;105789;1308;21979;-65
2022/11/22 21:00:53;;;;;;;49.50;27.10;;;;;;;2.58;63.59;100296.92;105727;1306;22002;-65
2022/11/22 21:03:19;;;;;;;55.00;30.90;;;;;;;2.63;63.69;100285.95;105770;1306;21969;-65
2022/11/22 21:05:45;;;;;;;72.60;38.50;;;;;;;2.70;63.84;100291.45;105734;1306;21970;-64
2022/11/22 21:08:11;;;;;;;58.00;30.40;;;;;;;2.70;63.60;100295.93;105730;1306;21970;-65
2022/11/22 21:10:37;;;;;;;54.10;29.20;;;;;;;2.67;63.72;100292.27;105755;1307;21964;-64
2022/11/22 21:13:03;;;;;;;58.50;31.20;;;;;;;2.77;63.67;100294.34;105736;1301;21971;-65
2022/11/22 21:15:28;;;;;;;62.40;36.30;;;;;;;2.82;63.59;100296.50;105725;1306;21967;-63
2022/11/22 21:17:55;;;;;;;65.50;36.70;;;;;;;2.75;63.76;100294.29;105748;1306;21957;-65
2022/11/22 21:20:26;;;;;;;71.00;36.60;;;;;;;2.77;63.52;100296.08;105836;1307;21972;-65
2022/11/22 21:22:53;;;;;;;67.80;37.80;;;;;;;2.81;63.48;100293.71;105631;1312;21957;-64
2022/11/22 21:25:20;;;;;;;72.10;35.70;;;;;;;2.94;62.95;100302.78;105674;1310;21972;-66
2022/11/22 21:27:47;;;;;;;63.90;34.30;;;;;;;2.93;62.57;100301.73;105661;1308;22021;-66
2022/11/22 21:30:14;;;;;;;64.90;36.30;;;;;;;2.91;62.52;100301.35;105770;1306;21965;-64
2022/11/22 21:32:42;;;;;;;69.20;35.80;;;;;;;2.91;62.46;100309.50;105720;1306;21973;-65
2022/11/22 21:35:08;;;;;;;65.10;35.70;;;;;;;2.99;62.24;100305.98;105697;1306;21968;-66
2022/11/22 21:37:34;;;;;;;71.20;36.10;;;;;;;2.92;62.41;100306.39;105693;1307;21975;-65
2022/11/22 21:40:00;;;;;;;67.50;35.60;;;;;;;2.86;62.55;100310.95;105660;1308;21960;-66
2022/11/22 21:42:26;;;;;;;62.00;33.90;;;;;;;2.85;62.52;100304.00;105718;1308;21969;-65
2022/11/22 21:44:52;;;;;;;73.70;39.10;;;;;;;2.87;62.68;100295.55;105632;1307;21977;-66
2022/11/22 21:47:22;;;;;;;70.40;35.20;;;;;;;2.89;62.44;100290.04;105922;1305;21969;-65
2022/11/22 21:49:48;;;;;;;67.90;35.50;;;;;;;2.79;62.61;100282.93;105709;1307;21966;-65
2022/11/22 21:52:14;;;;;;;68.00;36.10;;;;;;;2.73;62.47;100284.91;105715;1305;21984;-65
2022/11/22 21:54:41;;;;;;;66.80;37.30;;;;;;;2.67;62.46;100288.09;104983;1306;1002561;-65
2022/11/22 21:57:06;;;;;;;64.20;33.00;;;;;;;2.62;62.19;100285.06;105045;1306;1002076;-66
2022/11/22 21:59:34;;;;;;;59.00;32.70;;;;;;;2.55;62.12;100278.68;105669;1306;22018;-67
2022/11/22 22:02:00;;;;;;;63.10;33.50;;;;;;;2.49;62.14;100276.66;105797;1306;21964;-66
2022/11/22 22:04:26;;;;;;;62.80;35.40;;;;;;;2.42;61.92;100274.82;105780;1306;21984;-65
2022/11/22 22:06:52;;;;;;;64.90;32.90;;;;;;;2.34;61.80;100267.04;105698;1306;21965;-65
2022/11/22 22:09:19;;;;;;;54.40;31.90;;;;;;;2.27;61.70;100255.48;105708;1299;22104;-66
2022/11/22 22:11:46;;;;;;;58.70;32.20;;;;;;;2.23;62.00;100254.87;105753;1306;22011;-65
2022/11/22 22:14:13;;;;;;;54.10;30.60;;;;;;;2.22;61.90;100254.15;105769;1307;21967;-66
2022/11/22 22:16:39;;;;;;;56.20;32.70;;;;;;;2.20;62.07;100252.41;105806;1308;21966;-65
2022/11/22 22:19:06;;;;;;;70.70;37.00;;;;;;;2.18;61.91;100250.96;105726;1309;21986;-65
2022/11/22 22:21:32;;;;;;;62.90;35.40;;;;;;;2.12;61.86;100250.66;105754;1307;21984;-65
2022/11/22 22:23:59;;;;;;;58.20;33.50;;;;;;;2.10;61.89;100250.96;105733;1307;21967;-66
2022/11/22 22:26:25;;;;;;;65.90;36.40;;;;;;;1.98;62.18;100249.70;105846;1306;21965;-66
2022/11/22 22:28:51;;;;;;;55.00;33.20;;;;;;;2.00;62.82;100244.89;105733;1307;22024;-65
2022/11/22 22:31:22;;;;;;;58.20;34.50;;;;;;;2.08;62.81;100242.46;105738;1304;21965;-66
2022/11/22 22:33:53;;;;;;;50.60;30.40;;;;;;;2.13;62.69;100237.02;105654;1306;22448;-66
2022/11/22 22:36:19;;;;;;;59.80;32.80;;;;;;;2.11;62.76;100233.00;105724;1307;21954;-65
2022/11/22 22:38:44;;;;;;;61.00;33.40;;;;;;;2.12;62.74;100232.52;104957;1309;1002176;-65
2022/11/22 22:41:11;;;;;;;67.20;35.90;;;;;;;2.18;62.50;100232.63;104947;1307;1002317;-66
2022/11/22 22:43:41;;;;;;;64.90;35.90;;;;;;;2.18;62.34;100231.58;105735;1304;21978;-65
2022/11/22 22:46:12;;;;;;;70.10;36.70;;;;;;;2.15;62.36;100228.91;105747;1306;21967;-66
2022/11/22 22:48:38;;;;;;;74.90;41.30;;;;;;;2.19;62.35;100235.59;105046;1307;1002322;-66
2022/11/22 22:51:15;;;;;;;68.70;38.40;;;;;;;2.21;62.49;100235.29;105732;1306;22027;-67
2022/11/22 22:53:40;;;;;;;64.70;36.60;;;;;;;2.33;62.53;100231.85;105715;1298;21964;-66
2022/11/22 22:56:07;;;;;;;58.60;33.20;;;;;;;2.48;62.27;100231.11;105744;1306;22427;-66
2022/11/22 22:58:33;;;;;;;65.50;35.50;;;;;;;2.63;62.26;100225.65;105738;1306;21966;-66
2022/11/22 23:01:17;;;;;;;69.80;34.80;;;;;;;2.74;62.24;100223.06;105766;1306;21970;-66
2022/11/22 23:03:48;;;;;;;63.00;33.40;;;;;;;2.84;62.20;100225.14;105664;1308;23720;-64
2022/11/22 23:06:14;;;;;;;61.30;33.40;;;;;;;2.91;62.41;100224.73;105702;1307;21970;-65
2022/11/22 23:08:42;;;;;;;60.40;34.20;;;;;;;2.97;62.27;100222.58;105668;1308;21962;-66
2022/11/22 23:11:08;;;;;;;64.90;34.40;;;;;;;3.03;62.13;100225.09;105704;1307;21971;-64
2022/11/22 23:13:35;;;;;;;64.90;35.00;;;;;;;3.07;62.13;100217.03;105703;1304;21958;-65
2022/11/22 23:16:03;;;;;;;58.80;32.20;;;;;;;3.15;62.06;100221.64;105768;1306;21960;-66
2022/11/22 23:18:29;;;;;;;59.10;32.10;;;;;;;3.21;62.14;100224.17;105730;1305;21969;-65
2022/11/22 23:20:59;;;;;;;52.20;30.70;;;;;;;3.29;62.19;100223.59;105755;1306;21962;-64
2022/11/22 23:23:24;;;;;;;42.70;24.20;;;;;;;3.35;62.25;100227.14;105653;1307;21966;-66
2022/11/22 23:25:50;;;;;;;34.00;21.40;;;;;;;3.33;62.18;100226.77;105634;1307;22014;-65
2022/11/22 23:28:16;;;;;;;37.40;23.50;;;;;;;3.32;61.90;100222.77;105710;1307;21998;-64
2022/11/22 23:30:46;;;;;;;40.20;24.00;;;;;;;3.33;62.08;100220.86;105711;1306;21959;-66
2022/11/22 23:33:12;;;;;;;38.90;24.40;;;;;;;3.37;62.09;100225.95;105813;1308;21956;-65
2022/11/22 23:35:39;;;;;;;43.30;26.00;;;;;;;3.38;61.95;100220.59;104909;1307;1002813;-66
2022/11/22 23:38:05;;;;;;;42.40;25.30;;;;;;;3.35;61.95;100222.64;105646;1307;21973;-65
2022/11/22 23:40:31;;;;;;;39.40;24.80;;;;;;;3.31;62.00;100227.09;105673;1309;21981;-66
2022/11/22 23:42:57;;;;;;;42.80;24.70;;;;;;;3.31;62.03;100228.14;105631;1307;21962;-65
2022/11/22 23:45:23;;;;;;;39.40;22.70;;;;;;;3.32;62.18;100227.27;105609;1308;21975;-66
2022/11/22 23:47:50;;;;;;;32.30;20.20;;;;;;;3.33;62.20;100222.60;105749;1308;22017;-65
2022/11/22 23:50:16;;;;;;;30.50;18.60;;;;;;;3.41;62.18;100224.81;105730;1306;21967;-65
2022/11/22 23:52:42;;;;;;;28.60;17.90;;;;;;;3.47;62.11;100217.08;105720;1305;21971;-66
2022/11/22 23:55:09;;;;;;;26.10;15.70;;;;;;;3.56;61.89;100217.21;105718;1305;21955;-65
2022/11/22 23:57:36;;;;;;;26.00;15.80;;;;;;;3.59;61.68;100220.55;105696;1306;21983;-65
